Terminal Aerodrome Forecast
Issued by NWS Pendleton, OR

Home | Current Version | Previous Version | Text Only | Print | Product List | Glossary On
Versions: 1 2 3 4 5 6 7 8 9 10 11 12 13 14 15
844
FTUS46 KPDT 241128
TAFPDT
TAF
KPDT 241128Z 2412/2512 VRB04KT P6SM -RA BKN040 OVC060
     FM241500 15007KT P6SM -RA SCT030 OVC050
     FM241800 23010KT P6SM -RA BKN035 OVC040
     FM250200 25011KT P6SM VCSH BKN020 OVC040=

USA.gov is the U.S. government's official web portal to all federal, state and local government web resources and services.